createdAt,value
2018-09-04T00:00:02.126Z,79.32
2018-09-04T00:02:31.756Z,79.13
2018-09-04T00:05:01.473Z,79.40
2018-09-04T00:07:31.226Z,80.02
2018-09-04T00:10:01.384Z,79.92
2018-09-04T00:12:30.848Z,80.22
2018-09-04T00:15:00.642Z,80.21
2018-09-04T00:17:30.849Z,80.20
2018-09-04T00:20:00.403Z,79.67
2018-09-04T00:22:29.930Z,79.53
2018-09-04T00:24:59.562Z,79.66
2018-09-04T00:27:29.150Z,79.75
2018-09-04T00:29:58.653Z,79.55
2018-09-04T00:32:28.794Z,79.54
2018-09-04T00:34:58.063Z,79.25
2018-09-04T00:37:27.674Z,78.98
2018-09-04T00:39:57.551Z,79.20
2018-09-04T00:42:27.026Z,79.30
2018-09-04T00:44:56.749Z,79.19
2018-09-04T00:47:26.790Z,79.11
2018-09-04T00:49:57.245Z,78.36
2018-09-04T00:52:26.867Z,78.28
2018-09-04T00:54:57.519Z,78.67
2018-09-04T00:57:26.906Z,78.72
2018-09-04T00:59:56.356Z,78.73
2018-09-04T01:02:26.241Z,78.66
2018-09-04T01:04:55.738Z,78.70
2018-09-04T01:07:25.465Z,78.91
2018-09-04T01:09:55.372Z,78.76
2018-09-04T01:12:25.789Z,78.88
2018-09-04T01:14:57.589Z,79.10
2018-09-04T01:17:27.257Z,79.28
2018-09-04T01:19:56.970Z,78.63
2018-09-04T01:22:27.994Z,78.34
2018-09-04T01:24:57.398Z,78.69
2018-09-04T01:27:27.149Z,78.34
2018-09-04T01:29:56.695Z,78.56
2018-09-04T01:32:27.012Z,78.35
2018-09-04T01:34:56.894Z,78.67
2018-09-04T01:37:26.465Z,79.53
2018-09-04T01:39:58.121Z,79.50
2018-09-04T01:42:28.740Z,79.43
2018-09-04T01:44:58.308Z,79.30
2018-09-04T01:47:28.637Z,79.48
2018-09-04T01:49:58.541Z,79.66
2018-09-04T01:52:27.959Z,79.71
2018-09-04T01:54:57.526Z,79.49
2018-09-04T01:57:27.091Z,80.12
2018-09-04T01:59:56.549Z,79.83
2018-09-04T02:02:26.595Z,80.35
2018-09-04T02:04:55.964Z,80.12
2018-09-04T02:07:25.644Z,80.39
2018-09-04T02:09:55.541Z,80.52
2018-09-04T02:12:25.212Z,80.32
2018-09-04T02:14:54.884Z,80.15
2018-09-04T02:17:24.652Z,80.37
2018-09-04T02:19:54.126Z,80.36
2018-09-04T02:22:23.725Z,80.27
2018-09-04T02:24:53.565Z,80.53
2018-09-04T02:27:23.059Z,81.27
2018-09-04T02:29:52.762Z,81.22
2018-09-04T02:32:22.352Z,81.18
2018-09-04T02:34:51.922Z,81.01
2018-09-04T02:37:22.143Z,81.01
2018-09-04T02:39:51.953Z,80.76
2018-09-04T02:42:21.730Z,80.85
2018-09-04T02:44:51.194Z,80.77
2018-09-04T02:47:20.971Z,80.97
2018-09-04T02:49:50.455Z,80.69
2018-09-04T02:52:19.898Z,80.51
2018-09-04T02:54:49.954Z,80.16
2018-09-04T02:57:19.689Z,80.07
2018-09-04T02:59:48.978Z,80.43
2018-09-04T03:02:18.913Z,80.67
2018-09-04T03:04:48.391Z,80.72
2018-09-04T03:07:18.008Z,80.87
2018-09-04T03:09:47.637Z,81.35
2018-09-04T03:12:17.560Z,81.06
2018-09-04T03:14:47.058Z,80.54
2018-09-04T03:17:16.885Z,80.52
2018-09-04T03:19:46.476Z,80.63
2018-09-04T03:22:16.078Z,80.87
2018-09-04T03:24:45.803Z,81.01
2018-09-04T03:27:15.577Z,81.14
2018-09-04T03:29:45.549Z,80.88
2018-09-04T03:32:15.413Z,80.93
2018-09-04T03:34:44.914Z,80.17
2018-09-04T03:37:14.685Z,80.32
2018-09-04T03:39:44.537Z,81.18
2018-09-04T03:42:14.177Z,81.47
2018-09-04T03:44:43.819Z,81.71
2018-09-04T03:47:13.601Z,81.70
2018-09-04T03:49:43.198Z,81.69
2018-09-04T03:52:12.789Z,81.66
2018-09-04T03:54:42.769Z,81.69
2018-09-04T03:57:12.422Z,81.83
2018-09-04T03:59:42.351Z,81.96
2018-09-04T04:02:12.190Z,81.87
2018-09-04T04:04:41.699Z,81.84
2018-09-04T04:07:11.411Z,81.89
2018-09-04T04:09:41.158Z,81.93
2018-09-04T04:12:11.029Z,81.74
2018-09-04T04:14:40.733Z,81.71
2018-09-04T04:17:10.683Z,81.13
2018-09-04T04:19:40.313Z,81.54
2018-09-04T04:22:09.895Z,81.10
2018-09-04T04:24:39.834Z,81.14
2018-09-04T04:27:09.581Z,81.12
2018-09-04T04:29:38.998Z,81.19
2018-09-04T04:32:08.680Z,81.75
2018-09-04T04:34:38.307Z,81.13
2018-09-04T04:37:08.429Z,80.92
2018-09-04T04:39:38.354Z,81.11
2018-09-04T04:42:07.983Z,81.22
2018-09-04T04:44:37.462Z,81.51
2018-09-04T04:47:07.337Z,81.63
2018-09-04T04:49:36.986Z,81.09
2018-09-04T04:52:06.710Z,81.50
2018-09-04T04:54:36.594Z,81.47
2018-09-04T04:57:06.142Z,81.42
2018-09-04T04:59:35.582Z,81.40
2018-09-04T05:02:05.413Z,81.43
2018-09-04T05:04:34.957Z,80.95
2018-09-04T05:07:04.539Z,81.20
2018-09-04T05:09:34.965Z,81.31
2018-09-04T05:12:05.232Z,81.27
2018-09-04T05:14:34.700Z,81.30
2018-09-04T05:17:05.045Z,81.40
2018-09-04T05:19:34.570Z,81.32
2018-09-04T05:22:04.036Z,81.38
2018-09-04T05:24:33.551Z,81.48
2018-09-04T05:27:03.569Z,81.35
2018-09-04T05:29:33.146Z,80.88
2018-09-04T05:32:21.407Z,80.41
2018-09-04T05:34:51.146Z,79.98
2018-09-04T05:37:21.023Z,80.23
2018-09-04T05:39:51.192Z,80.10
2018-09-04T05:42:31.948Z,80.05
2018-09-04T05:45:02.147Z,79.72
2018-09-04T05:47:34.754Z,80.19
2018-09-04T05:50:05.859Z,80.08
2018-09-04T05:52:35.666Z,79.95
2018-09-04T05:55:05.472Z,79.89
2018-09-04T05:57:35.049Z,80.20
2018-09-04T06:00:07.691Z,80.15
2018-09-04T06:02:37.538Z,80.13
2018-09-04T06:05:07.217Z,80.25
2018-09-04T06:07:36.838Z,80.01
2018-09-04T06:10:06.709Z,80.07
2018-09-04T06:12:36.047Z,80.28
2018-09-04T06:15:05.777Z,80.54
2018-09-04T06:17:35.571Z,80.25
2018-09-04T06:20:05.353Z,80.55
2018-09-04T06:22:35.039Z,80.38
2018-09-04T06:25:05.166Z,80.17
2018-09-04T06:27:34.916Z,80.13
2018-09-04T06:30:05.020Z,80.19
2018-09-04T06:32:35.180Z,80.25
2018-09-04T06:35:05.107Z,79.89
2018-09-04T06:37:34.985Z,80.21
2018-09-04T06:40:04.992Z,80.12
2018-09-04T06:42:34.917Z,79.88
2018-09-04T06:45:04.700Z,79.84
2018-09-04T06:47:34.600Z,78.99
2018-09-04T06:50:04.530Z,79.78
2018-09-04T06:52:34.057Z,79.68
2018-09-04T06:55:04.349Z,79.46
2018-09-04T06:57:34.136Z,79.59
2018-09-04T07:00:03.913Z,78.81
2018-09-04T07:02:33.695Z,78.82
2018-09-04T07:05:03.248Z,78.91
2018-09-04T07:07:32.748Z,79.07
2018-09-04T07:10:02.232Z,78.94
2018-09-04T07:12:31.787Z,79.15
2018-09-04T07:15:01.631Z,78.66
2018-09-04T07:17:31.662Z,77.99
2018-09-04T07:20:01.482Z,78.00
2018-09-04T07:22:31.278Z,77.59
2018-09-04T07:25:01.257Z,76.87
2018-09-04T07:27:30.788Z,76.86
2018-09-04T07:30:00.468Z,77.26
2018-09-04T07:32:30.824Z,76.21
2018-09-04T07:35:00.409Z,75.03
2018-09-04T07:37:30.037Z,75.56
2018-09-04T07:39:59.995Z,73.34
2018-09-04T07:42:29.563Z,72.94
2018-09-04T07:44:59.009Z,73.66
2018-09-04T07:47:29.271Z,73.33
2018-09-04T07:49:58.692Z,73.24
2018-09-04T07:52:28.201Z,72.04
2018-09-04T07:54:57.797Z,68.33
2018-09-04T07:57:27.478Z,69.21
2018-09-04T07:59:56.901Z,71.73
2018-09-04T08:02:26.979Z,68.07
2018-09-04T08:04:56.409Z,70.77
2018-09-04T08:07:26.251Z,68.89
2018-09-04T08:09:56.159Z,66.30
2018-09-04T08:12:25.945Z,66.71
2018-09-04T08:14:55.590Z,67.30
2018-09-04T08:17:25.481Z,68.40
2018-09-04T08:19:54.862Z,66.48
2018-09-04T08:22:24.479Z,67.59
2018-09-04T08:24:54.313Z,66.68
2018-09-04T08:27:24.113Z,68.45
2018-09-04T08:29:53.569Z,65.10
2018-09-04T08:32:23.500Z,66.58
2018-09-04T08:34:52.979Z,65.90
2018-09-04T08:37:22.810Z,65.25
2018-09-04T08:39:52.657Z,65.13
2018-09-04T08:42:22.119Z,66.75
2018-09-04T08:44:51.874Z,63.74
2018-09-04T08:47:22.154Z,62.30
2018-09-04T08:49:51.542Z,63.49
2018-09-04T08:52:21.103Z,63.73
2018-09-04T08:54:50.870Z,66.02
2018-09-04T08:57:20.524Z,64.58
2018-09-04T08:59:50.250Z,61.62
2018-09-04T09:02:20.475Z,61.83
2018-09-04T09:04:50.183Z,58.80
2018-09-04T09:07:20.039Z,58.86
2018-09-04T09:09:49.591Z,61.60
2018-09-04T09:12:19.325Z,60.06
2018-09-04T09:14:48.888Z,60.41
2018-09-04T09:17:18.853Z,59.67
2018-09-04T09:19:48.858Z,57.76
2018-09-04T09:22:18.457Z,57.41
2018-09-04T09:24:48.455Z,56.21
2018-09-04T09:27:17.978Z,57.95
2018-09-04T09:29:47.889Z,58.35
2018-09-04T09:32:17.665Z,53.23
2018-09-04T09:34:47.030Z,54.53
2018-09-04T09:37:16.374Z,54.74
2018-09-04T09:39:46.771Z,55.80
2018-09-04T09:42:16.359Z,56.05
2018-09-04T09:44:45.862Z,52.05
2018-09-04T09:47:15.507Z,52.39
2018-09-04T09:49:44.994Z,54.37
2018-09-04T09:52:14.390Z,51.61
2018-09-04T09:54:44.329Z,51.24
2018-09-04T09:57:13.688Z,50.17
2018-09-04T09:59:43.141Z,49.58
2018-09-04T10:02:17.962Z,49.32
2018-09-04T10:04:47.973Z,48.38
2018-09-04T10:07:17.630Z,49.10
2018-09-04T10:09:48.348Z,47.14
2018-09-04T10:12:18.016Z,47.94
2018-09-04T10:14:47.520Z,47.54
2018-09-04T10:17:17.632Z,45.65
2018-09-04T10:19:47.404Z,46.50
2018-09-04T10:22:17.106Z,45.71
2018-09-04T10:24:46.951Z,46.88
2018-09-04T10:27:16.593Z,44.84
2018-09-04T10:29:46.389Z,46.32
2018-09-04T10:32:16.223Z,46.27
2018-09-04T10:34:45.975Z,44.15
2018-09-04T10:37:15.608Z,42.46
2018-09-04T10:39:50.331Z,40.94
2018-09-04T10:42:25.151Z,42.77
2018-09-04T10:44:55.128Z,42.89
2018-09-04T10:47:24.512Z,44.43
2018-09-04T10:49:54.667Z,43.11
2018-09-04T10:52:25.314Z,43.25
2018-09-04T10:54:54.979Z,41.86
2018-09-04T10:57:24.573Z,40.79
2018-09-04T10:59:54.223Z,41.67
2018-09-04T11:02:24.168Z,41.28
2018-09-04T11:04:53.859Z,41.63
2018-09-04T11:07:23.670Z,40.69
2018-09-04T11:09:53.375Z,40.38
2018-09-04T11:12:22.838Z,40.10
2018-09-04T11:14:52.749Z,38.77
2018-09-04T11:17:22.359Z,37.59
2018-09-04T11:19:51.767Z,40.69
2018-09-04T11:22:21.585Z,37.99
2018-09-04T11:24:50.985Z,37.04
2018-09-04T11:27:20.895Z,37.22
2018-09-04T11:29:50.741Z,38.44
2018-09-04T11:32:20.349Z,38.19
2018-09-04T11:34:49.787Z,36.58
2018-09-04T11:37:19.683Z,36.32
2018-09-04T11:39:49.041Z,37.69
2018-09-04T11:42:18.483Z,36.81
2018-09-04T11:44:48.246Z,37.88
2018-09-04T11:47:18.480Z,36.75
2018-09-04T11:49:47.933Z,38.17
2018-09-04T11:52:17.797Z,36.25
2018-09-04T11:54:47.309Z,35.21
2018-09-04T11:57:16.822Z,35.01
2018-09-04T11:59:46.959Z,35.15
2018-09-04T12:02:38.099Z,35.98
2018-09-04T12:05:08.240Z,34.66
2018-09-04T12:07:37.790Z,35.56
2018-09-04T12:10:07.825Z,35.11
2018-09-04T12:12:37.931Z,32.30
2018-09-04T12:15:07.653Z,34.39
2018-09-04T12:17:37.348Z,33.23
2018-09-04T12:20:12.003Z,32.85
2018-09-04T12:22:41.574Z,32.68
2018-09-04T12:25:11.167Z,34.16
2018-09-04T12:27:41.160Z,33.27
2018-09-04T12:30:12.038Z,32.44
2018-09-04T12:32:41.581Z,31.55
2018-09-04T12:35:11.491Z,29.90
2018-09-04T12:37:40.982Z,30.58
2018-09-04T12:40:10.261Z,32.69
2018-09-04T12:42:40.453Z,29.94
2018-09-04T12:45:10.127Z,29.39
2018-09-04T12:47:39.516Z,30.43
2018-09-04T12:50:09.585Z,30.65
2018-09-04T12:52:39.042Z,29.05
2018-09-04T12:55:08.669Z,29.60
2018-09-04T12:57:38.265Z,29.83
2018-09-04T13:00:08.157Z,31.11
2018-09-04T13:02:37.787Z,30.69
2018-09-04T13:05:07.807Z,29.72
2018-09-04T13:07:37.306Z,28.86
2018-09-04T13:10:06.981Z,28.21
2018-09-04T13:12:37.150Z,29.14
2018-09-04T13:15:07.009Z,28.91
2018-09-04T13:17:36.547Z,28.95
2018-09-04T13:20:06.671Z,29.03
2018-09-04T13:22:36.297Z,28.12
2018-09-04T13:25:05.992Z,29.55
2018-09-04T13:27:35.967Z,28.95
2018-09-04T13:30:06.098Z,30.67
2018-09-04T13:32:35.845Z,29.33
2018-09-04T13:35:05.409Z,28.80
2018-09-04T13:37:35.162Z,30.44
2018-09-04T13:40:04.658Z,29.72
2018-09-04T13:42:34.604Z,28.53
2018-09-04T13:45:04.325Z,29.19
2018-09-04T13:47:34.624Z,28.04
2018-09-04T13:50:04.768Z,28.79
2018-09-04T13:52:34.358Z,27.28
2018-09-04T13:55:03.965Z,27.49
2018-09-04T13:57:34.430Z,28.27
2018-09-04T14:00:04.305Z,27.67
2018-09-04T14:02:34.096Z,27.39
2018-09-04T14:05:04.357Z,26.91
2018-09-04T14:07:34.346Z,26.51
2018-09-04T14:10:04.062Z,28.08
2018-09-04T14:12:33.906Z,27.10
2018-09-04T14:15:03.612Z,26.93
2018-09-04T14:17:33.050Z,26.67
2018-09-04T14:20:03.032Z,28.34
2018-09-04T14:22:32.503Z,26.86
2018-09-04T14:25:02.008Z,26.99
2018-09-04T14:27:31.764Z,27.97
2018-09-04T14:30:16.461Z,27.73
2018-09-04T14:32:30.830Z,28.52
2018-09-04T14:35:01.661Z,28.23
2018-09-04T14:37:31.437Z,29.18
2018-09-04T14:40:01.921Z,29.14
2018-09-04T14:42:31.771Z,29.27
2018-09-04T14:45:01.377Z,27.15
2018-09-04T14:47:30.968Z,26.96
2018-09-04T14:50:00.549Z,27.73
2018-09-04T14:52:30.056Z,27.80
2018-09-04T14:54:59.449Z,27.45
2018-09-04T14:57:29.512Z,26.80
2018-09-04T15:00:00.010Z,27.38
2018-09-04T15:02:30.253Z,26.20
2018-09-04T15:05:01.173Z,27.17
2018-09-04T15:07:31.226Z,28.22
2018-09-04T15:10:00.730Z,27.90
2018-09-04T15:12:30.201Z,27.24
2018-09-04T15:14:59.493Z,27.41
2018-09-04T15:17:29.292Z,27.52
2018-09-04T15:19:58.715Z,27.33
2018-09-04T15:22:28.673Z,27.31
2018-09-04T15:24:58.142Z,27.55
2018-09-04T15:27:27.866Z,27.51
2018-09-04T15:29:57.459Z,27.66
2018-09-04T15:32:27.309Z,28.66
2018-09-04T15:34:56.816Z,28.72
2018-09-04T15:37:27.020Z,28.79
2018-09-04T15:39:56.514Z,29.12
2018-09-04T15:42:26.182Z,30.27
2018-09-04T15:44:56.217Z,30.50
2018-09-04T15:47:25.871Z,30.18
2018-09-04T15:49:55.462Z,30.11
2018-09-04T15:52:25.405Z,31.49
2018-09-04T15:54:54.647Z,30.25
2018-09-04T15:57:23.911Z,30.36
2018-09-04T15:59:53.949Z,31.09
2018-09-04T16:02:23.301Z,32.48
2018-09-04T16:04:52.890Z,33.55
2018-09-04T16:07:22.569Z,33.06
2018-09-04T16:09:52.518Z,33.49
2018-09-04T16:12:21.851Z,35.83
2018-09-04T16:14:52.318Z,37.36
2018-09-04T16:17:22.493Z,38.07
2018-09-04T16:19:52.397Z,39.07
2018-09-04T16:22:22.609Z,40.45
2018-09-04T16:24:52.035Z,40.64
2018-09-04T16:27:21.329Z,41.18
2018-09-04T16:29:51.167Z,41.49
2018-09-04T16:32:20.754Z,41.00
2018-09-04T16:34:50.435Z,41.24
2018-09-04T16:37:20.107Z,41.87
2018-09-04T16:39:49.696Z,41.66
2018-09-04T16:42:20.344Z,41.58
2018-09-04T16:44:50.059Z,43.05
2018-09-04T16:47:19.318Z,42.55
2018-09-04T16:49:48.651Z,43.95
2018-09-04T16:52:18.656Z,44.38
2018-09-04T16:54:48.540Z,44.44
2018-09-04T16:57:18.407Z,44.29
2018-09-04T16:59:48.364Z,44.47
2018-09-04T17:02:17.929Z,43.84
2018-09-04T17:04:47.730Z,44.51
2018-09-04T17:07:17.403Z,44.11
2018-09-04T17:09:47.159Z,44.24
2018-09-04T17:12:16.979Z,44.52
2018-09-04T17:14:46.567Z,44.45
2018-09-04T17:17:16.208Z,45.12
2018-09-04T17:19:45.849Z,45.34
2018-09-04T17:22:15.636Z,45.10
2018-09-04T17:24:45.008Z,46.03
2018-09-04T17:27:14.782Z,45.34
2018-09-04T17:29:44.646Z,45.41
2018-09-04T17:32:14.232Z,45.14
2018-09-04T17:34:43.634Z,45.35
2018-09-04T17:37:13.777Z,45.78
2018-09-04T17:39:43.250Z,47.35
2018-09-04T17:42:12.880Z,46.33
2018-09-04T17:44:42.703Z,46.67
2018-09-04T17:47:12.529Z,46.84
2018-09-04T17:49:41.886Z,46.71
2018-09-04T17:52:11.668Z,46.31
2018-09-04T17:54:41.549Z,46.63
2018-09-04T17:57:11.156Z,46.93
2018-09-04T17:59:41.147Z,47.28
2018-09-04T18:02:11.023Z,47.63
2018-09-04T18:04:40.483Z,48.05
2018-09-04T18:07:10.558Z,48.33
2018-09-04T18:09:40.209Z,48.97
2018-09-04T18:12:10.155Z,48.81
2018-09-04T18:14:39.999Z,48.97
2018-09-04T18:17:09.884Z,49.55
2018-09-04T18:19:39.657Z,49.48
2018-09-04T18:22:09.538Z,49.12
2018-09-04T18:24:38.965Z,50.05
2018-09-04T18:27:08.574Z,50.21
2018-09-04T18:29:38.561Z,50.34
2018-09-04T18:32:08.519Z,50.34
2018-09-04T18:34:38.301Z,50.26
2018-09-04T18:37:07.747Z,50.01
2018-09-04T18:39:37.453Z,51.01
2018-09-04T18:42:07.226Z,51.08
2018-09-04T18:44:37.514Z,50.96
2018-09-04T18:47:07.724Z,50.82
2018-09-04T18:49:37.314Z,51.79
2018-09-04T18:52:07.159Z,51.51
2018-09-04T18:54:36.850Z,51.46
2018-09-04T18:57:06.661Z,51.33
2018-09-04T18:59:36.621Z,51.37
2018-09-04T19:02:06.393Z,50.65
2018-09-04T19:04:35.859Z,51.71
2018-09-04T19:07:05.626Z,51.36
2018-09-04T19:09:35.115Z,51.29
2018-09-04T19:12:04.624Z,51.75
2018-09-04T19:14:34.953Z,50.97
2018-09-04T19:17:04.658Z,51.21
2018-09-04T19:19:34.581Z,51.65
2018-09-04T19:22:04.404Z,51.68
2018-09-04T19:24:33.961Z,51.37
2018-09-04T19:27:03.479Z,50.87
2018-09-04T19:29:33.110Z,52.17
2018-09-04T19:32:02.609Z,52.93
2018-09-04T19:34:32.021Z,52.82
2018-09-04T19:37:01.546Z,53.07
2018-09-04T19:39:31.020Z,53.42
2018-09-04T19:42:00.729Z,54.13
2018-09-04T19:44:30.677Z,54.79
2018-09-04T19:47:00.177Z,55.32
2018-09-04T19:49:29.964Z,55.06
2018-09-04T19:51:59.566Z,55.12
2018-09-04T19:54:29.319Z,55.33
2018-09-04T19:56:58.677Z,55.47
2018-09-04T19:59:28.478Z,55.03
2018-09-04T20:01:58.010Z,55.07
2018-09-04T20:04:27.944Z,55.49
2018-09-04T20:06:57.493Z,55.88
2018-09-04T20:09:27.142Z,55.70
2018-09-04T20:11:56.563Z,55.93
2018-09-04T20:14:26.390Z,55.60
2018-09-04T20:16:55.924Z,55.27
2018-09-04T20:19:25.470Z,55.76
2018-09-04T20:21:55.097Z,55.66
2018-09-04T20:24:24.609Z,55.59
2018-09-04T20:26:55.261Z,55.46
2018-09-04T20:29:24.988Z,55.46
2018-09-04T20:31:54.561Z,57.26
2018-09-04T20:34:24.361Z,57.16
2018-09-04T20:36:54.607Z,57.13
2018-09-04T20:39:24.481Z,56.79
2018-09-04T20:41:54.086Z,56.11
2018-09-04T20:44:23.980Z,56.20
2018-09-04T20:46:53.686Z,56.12
2018-09-04T20:49:23.437Z,56.91
2018-09-04T20:51:53.207Z,57.40
2018-09-04T20:54:22.698Z,57.18
2018-09-04T20:56:55.058Z,57.55
2018-09-04T20:59:35.450Z,57.55
2018-09-04T21:02:16.082Z,57.73
2018-09-04T21:04:56.636Z,57.62
2018-09-04T21:07:42.496Z,57.74
2018-09-04T21:10:11.923Z,58.10
2018-09-04T21:12:41.410Z,58.03
2018-09-04T21:32:32.957Z,60.03
2018-09-04T21:35:02.560Z,61.12
2018-09-04T21:37:32.694Z,61.42
2018-09-04T21:57:24.440Z,62.17
2018-09-04T21:59:54.011Z,62.08
2018-09-04T22:02:23.655Z,61.92
2018-09-04T22:04:53.468Z,61.50
2018-09-04T22:07:22.863Z,60.88
2018-09-04T22:09:52.253Z,60.91
2018-09-04T22:29:44.753Z,60.97
2018-09-04T22:32:14.396Z,60.81
2018-09-04T22:34:43.811Z,61.09
2018-09-04T22:37:13.504Z,61.08
2018-09-04T22:39:42.974Z,61.00
2018-09-04T22:42:12.785Z,60.66
2018-09-04T22:44:43.557Z,60.60
2018-09-04T22:47:13.085Z,60.50
2018-09-04T22:49:48.162Z,60.42
2018-09-04T22:52:17.962Z,60.16
2018-09-04T22:54:47.612Z,60.96
2018-09-04T22:57:17.427Z,60.71
2018-09-04T22:59:46.871Z,60.71
2018-09-04T23:02:16.437Z,60.79
2018-09-04T23:04:46.954Z,60.42
2018-09-04T23:07:16.612Z,60.11
2018-09-04T23:09:46.146Z,60.33
2018-09-04T23:12:17.661Z,60.65
2018-09-04T23:14:47.632Z,61.02
2018-09-04T23:17:17.184Z,61.08
2018-09-04T23:19:47.393Z,60.78
2018-09-04T23:22:17.210Z,60.87
2018-09-04T23:24:46.808Z,60.91
2018-09-04T23:27:16.721Z,61.36
2018-09-04T23:29:46.596Z,61.35
2018-09-04T23:32:16.089Z,61.51
2018-09-04T23:34:46.158Z,61.74
2018-09-04T23:54:38.030Z,62.24
2018-09-04T23:57:07.907Z,62.68
2018-09-04T23:59:37.562Z,62.26
